Time;durP1;ratioP1;P1;durP2;ratioP2;P2;SDS_P1;SDS_P2;PMS_P1;PMS_P2;Temp;Humidity;BMP_temperature;BMP_pressure;BME280_temperature;BME280_humidity;BME280_pressure;Samples;Min_cycle;Max_cycle;Signal;HPM_P1;HPM_P2
2021/10/30 06:29:50;;;;;;;11.15;3.70;;;17.90;73.10;;;;;;4817258;29;20088;-75
2021/10/30 06:32:16;;;;;;;12.40;3.33;;;18.00;73.20;;;;;;4827548;29;20078;-76
2021/10/30 06:34:42;;;;;;;9.55;3.40;;;18.10;73.10;;;;;;4828821;29;20171;-75
2021/10/30 06:37:07;;;;;;;16.83;4.07;;;18.20;73.10;;;;;;4812954;29;20096;-77
2021/10/30 06:39:33;;;;;;;11.13;2.63;;;18.30;73.10;;;;;;4828376;29;20509;-77
2021/10/30 06:41:59;;;;;;;8.13;2.90;;;18.40;73.00;;;;;;4828080;29;20454;-75
2021/10/30 06:44:24;;;;;;;12.90;3.08;;;18.40;72.80;;;;;;4842907;29;20069;-77
2021/10/30 06:46:52;;;;;;;6.90;2.70;;;18.50;72.70;;;;;;4828054;29;20448;-77
2021/10/30 06:49:18;;;;;;;9.98;3.38;;;18.50;72.50;;;;;;4828554;29;20046;-78
2021/10/30 06:51:46;;;;;;;15.48;3.33;;;18.60;72.50;;;;;;4827671;29;20046;-78
2021/10/30 06:54:12;;;;;;;10.18;3.47;;;18.70;72.70;;;;;;4805799;29;20096;-77
2021/10/30 06:56:40;;;;;;;12.38;4.10;;;18.70;72.50;;;;;;4846849;29;20085;-78
2021/10/30 06:59:07;;;;;;;8.68;4.72;;;18.80;72.60;;;;;;4846148;29;20049;-73
2021/10/30 07:01:35;;;;;;;15.07;5.35;;;18.80;71.80;;;;;;4844320;29;20049;-75
2021/10/30 07:04:07;;;;;;;14.50;4.63;;;18.80;71.20;;;;;;4838898;29;20077;-74
2021/10/30 07:06:33;;;;;;;18.10;5.18;;;18.70;71.20;;;;;;4820020;29;20101;-75
2021/10/30 07:09:00;;;;;;;17.17;4.63;;;18.70;71.40;;;;;;4827519;29;20046;-73
2021/10/30 07:11:26;;;;;;;14.70;4.75;;;18.70;71.40;;;;;;4811566;29;20054;-74
2021/10/30 07:13:52;;;;;;;13.38;4.45;;;18.70;71.40;;;;;;4842811;29;20456;-75
2021/10/30 07:16:19;;;;;;;12.88;4.22;;;18.70;71.20;;;;;;4846027;29;20057;-73
2021/10/30 07:18:44;;;;;;;16.90;3.92;;;18.70;71.50;;;;;;4846489;29;20203;-73
2021/10/30 07:59:59;;;;;;;12.13;3.47;;;18.60;72.10;;;;;;5200111;23;20097;-74
2021/10/30 08:02:25;;;;;;;16.73;4.40;;;18.60;72.00;;;;;;4826634;29;20085;-73
2021/10/30 08:04:51;;;;;;;10.65;4.03;;;18.60;72.20;;;;;;4827250;29;20433;-73
2021/10/30 08:07:17;;;;;;;12.77;4.35;;;18.60;72.30;;;;;;4825683;29;20134;-72
2021/10/30 08:09:44;;;;;;;13.30;3.83;;;18.60;72.30;;;;;;4827030;29;20377;-73
2021/10/30 08:12:11;;;;;;;13.10;3.83;;;18.60;72.20;;;;;;4827179;29;20054;-75
2021/10/30 08:14:37;;;;;;;14.88;3.95;;;18.60;72.00;;;;;;4796344;29;20054;-73
2021/10/30 08:17:02;;;;;;;9.38;3.30;;;18.60;72.00;;;;;;4826614;29;20053;-76
2021/10/30 08:19:28;;;;;;;14.27;4.10;;;18.60;72.20;;;;;;4826404;29;20057;-74
2021/10/30 08:21:54;;;;;;;13.77;4.40;;;18.60;72.20;;;;;;4827414;29;20054;-74
2021/10/30 08:24:19;;;;;;;15.43;4.22;;;18.60;72.20;;;;;;4826771;29;20054;-73
2021/10/30 08:26:45;;;;;;;15.02;5.22;;;18.60;73.70;;;;;;4826493;29;20063;-77
2021/10/30 08:29:11;;;;;;;11.55;3.90;;;18.60;73.80;;;;;;4826670;29;20515;-73
2021/10/30 08:31:37;;;;;;;16.50;5.53;;;18.60;73.10;;;;;;4826314;29;20060;-79
2021/10/30 08:34:03;;;;;;;18.13;4.68;;;18.70;73.20;;;;;;4810050;29;20453;-79
2021/10/30 08:36:29;;;;;;;16.15;5.47;;;18.70;72.90;;;;;;4826497;29;20122;-71
2021/10/30 08:38:56;;;;;;;11.48;5.15;;;18.70;72.50;;;;;;4826626;29;20378;-72
2021/10/30 08:41:21;;;;;;;14.90;5.25;;;18.70;72.50;;;;;;4824719;29;20074;-74
2021/10/30 08:43:49;;;;;;;16.08;4.95;;;18.70;72.40;;;;;;4810381;29;20100;-73
2021/10/30 08:46:16;;;;;;;15.18;4.82;;;18.70;72.30;;;;;;4826446;29;20146;-75
2021/10/30 08:48:46;;;;;;;10.20;4.60;;;18.60;72.50;;;;;;4826339;29;20054;-74
2021/10/30 08:51:12;;;;;;;11.40;4.90;;;18.60;72.70;;;;;;4825861;29;20538;-75
2021/10/30 08:53:38;;;;;;;13.63;4.40;;;18.60;72.80;;;;;;4825475;29;20051;-75
2021/10/30 08:56:04;;;;;;;14.63;4.78;;;18.60;73.10;;;;;;4826446;29;20057;-76
2021/10/30 08:58:31;;;;;;;16.13;5.18;;;18.60;73.00;;;;;;4826259;29;20058;-74
2021/10/30 09:01:00;;;;;;;11.02;4.35;;;18.60;73.20;;;;;;4827742;29;20066;-75
2021/10/30 09:03:26;;;;;;;8.38;3.78;;;18.60;73.50;;;;;;4827081;29;20381;-75
2021/10/30 09:05:58;;;;;;;8.43;3.92;;;18.50;73.50;;;;;;4844396;29;20054;-74
2021/10/30 09:08:27;;;;;;;12.55;3.88;;;18.50;73.70;;;;;;4828958;29;20398;-73
2021/10/30 09:10:55;;;;;;;10.15;4.38;;;18.50;73.80;;;;;;4844513;29;20079;-73
2021/10/30 09:13:21;;;;;;;10.05;3.75;;;18.40;74.00;;;;;;4843845;29;20466;-74
2021/10/30 09:15:52;;;;;;;7.90;3.55;;;18.50;74.00;;;;;;4839810;29;20060;-74
2021/10/30 09:18:34;;;;;;;9.02;3.80;;;18.50;73.90;;;;;;4826000;29;20065;-74
2021/10/30 09:21:02;;;;;;;7.90;3.72;;;18.50;73.90;;;;;;4809793;29;20081;-73
2021/10/30 09:23:29;;;;;;;10.98;4.00;;;18.50;73.80;;;;;;4826008;29;20086;-73
2021/10/30 09:26:02;;;;;;;8.27;3.90;;;18.50;73.80;;;;;;4825615;29;20458;-73
2021/10/30 09:28:33;;;;;;;10.10;3.60;;;18.40;73.80;;;;;;4825483;29;20054;-73
2021/10/30 09:31:05;;;;;;;5.47;3.25;;;18.50;73.80;;;;;;4827844;29;20066;-73
2021/10/30 09:33:33;;;;;;;9.75;3.88;;;18.50;73.70;;;;;;4829507;29;20050;-73
2021/10/30 09:36:11;;;;;;;7.10;3.58;;;18.50;73.60;;;;;;4829421;29;20378;-73
2021/10/30 09:38:39;;;;;;;7.82;3.40;;;18.50;73.40;;;;;;4829353;29;20050;-73
2021/10/30 09:41:24;;;;;;;7.28;3.50;;;18.50;73.40;;;;;;4828938;29;20046;-73
2021/10/30 09:44:06;;;;;;;6.72;3.50;;;18.50;73.30;;;;;;4828108;29;20054;-73
2021/10/30 09:46:44;;;;;;;8.50;3.20;;;18.50;73.40;;;;;;4823496;29;20058;-74
2021/10/30 09:49:25;;;;;;;8.90;3.78;;;18.50;73.30;;;;;;4828967;29;20119;-73
2021/10/30 09:52:11;;;;;;;6.25;3.63;;;18.40;73.00;;;;;;4829183;29;20065;-73
2021/10/30 09:54:45;;;;;;;6.50;3.20;;;18.50;73.10;;;;;;4827394;29;20047;-73
2021/10/30 09:57:14;;;;;;;5.55;3.03;;;18.50;73.00;;;;;;4829024;29;20043;-73
2021/10/30 09:59:40;;;;;;;8.60;3.40;;;18.50;72.90;;;;;;4828892;29;20058;-73
2021/10/30 10:02:09;;;;;;;4.32;3.10;;;18.50;72.80;;;;;;4828442;29;20390;-73
2021/10/30 10:04:39;;;;;;;3.85;2.85;;;18.50;72.70;;;;;;4828776;29;20118;-73
2021/10/30 10:07:06;;;;;;;19.13;4.60;;;18.50;72.60;;;;;;4828774;29;20362;-73
2021/10/30 10:09:32;;;;;;;22.30;4.32;;;18.30;70.90;;;;;;4828777;29;20065;-73
2021/10/30 10:12:00;;;;;;;7.50;3.35;;;18.00;71.10;;;;;;4828867;29;20054;-73
2021/10/30 10:14:26;;;;;;;10.10;3.30;;;18.00;72.30;;;;;;4828779;29;20050;-73
2021/10/30 10:16:53;;;;;;;7.57;3.58;;;18.10;72.80;;;;;;4847013;29;20042;-74
2021/10/30 10:19:21;;;;;;;6.07;3.00;;;18.20;72.90;;;;;;4828164;29;20137;-74
2021/10/30 10:21:52;;;;;;;7.95;3.65;;;18.20;72.70;;;;;;4844314;29;20061;-74
2021/10/30 10:24:32;;;;;;;7.68;3.55;;;18.30;72.70;;;;;;4847203;29;20121;-75
2021/10/30 10:26:59;;;;;;;9.02;3.55;;;18.40;72.70;;;;;;4836528;29;20065;-73
2021/10/30 10:29:32;;;;;;;8.25;3.20;;;18.40;72.50;;;;;;4828552;29;20538;-74
2021/10/30 10:32:05;;;;;;;7.15;3.05;;;18.40;72.30;;;;;;4828600;29;20057;-73
2021/10/30 10:34:39;;;;;;;15.63;3.70;;;18.50;72.30;;;;;;4828309;29;20138;-74
2021/10/30 10:37:11;;;;;;;12.07;3.65;;;18.50;72.30;;;;;;4828382;29;20160;-73
2021/10/30 10:39:50;;;;;;;12.38;4.18;;;18.50;72.20;;;;;;4828350;29;20050;-74
2021/10/30 10:42:15;;;;;;;7.38;3.13;;;18.60;72.20;;;;;;4846375;29;20046;-73
2021/10/30 10:44:41;;;;;;;15.40;3.53;;;18.60;72.20;;;;;;4847483;29;20415;-73
2021/10/30 10:47:31;;;;;;;20.42;3.42;;;18.60;72.10;;;;;;4846547;29;20462;-74
2021/10/30 10:50:08;;;;;;;13.45;3.85;;;18.60;72.00;;;;;;4839104;29;20070;-74
2021/10/30 10:52:34;;;;;;;15.02;3.65;;;18.60;72.10;;;;;;4846491;29;20058;-73
2021/10/30 10:55:02;;;;;;;12.63;3.47;;;18.60;72.10;;;;;;4846621;29;20053;-72
2021/10/30 10:57:29;;;;;;;13.10;3.72;;;18.60;72.30;;;;;;4847224;29;20061;-73
2021/10/30 10:59:58;;;;;;;10.88;3.00;;;18.50;72.30;;;;;;4847779;29;20113;-72
2021/10/30 11:02:29;;;;;;;8.30;3.30;;;18.60;74.30;;;;;;4863762;29;20058;-73
2021/10/30 11:05:10;;;;;;;8.77;3.30;;;18.60;73.50;;;;;;4846024;29;20058;-73
2021/10/30 11:07:49;;;;;;;9.98;3.78;;;18.40;72.90;;;;;;4846166;29;20062;-72
2021/10/30 11:10:19;;;;;;;11.43;4.03;;;18.40;73.60;;;;;;4845718;29;20347;-73
2021/10/30 11:13:09;;;;;;;9.50;3.80;;;18.30;74.00;;;;;;4845221;29;20423;-73
2021/10/30 11:15:43;;;;;;;16.42;3.28;;;18.40;74.30;;;;;;4845215;29;20057;-73
2021/10/30 11:21:09;;;;;;;12.00;3.30;;;18.50;74.60;;;;;;4845792;29;20077;-73
2021/10/30 11:23:47;;;;;;;15.63;3.83;;;18.50;74.10;;;;;;4846037;29;20050;-73
2021/10/30 11:26:23;;;;;;;19.90;4.18;;;18.50;74.00;;;;;;4840406;29;20054;-72
2021/10/30 11:28:51;;;;;;;18.33;4.03;;;18.50;74.00;;;;;;4845298;29;20081;-75
2021/10/30 11:31:24;;;;;;;20.00;4.28;;;18.50;73.90;;;;;;4845225;29;20060;-76
2021/10/30 11:34:06;;;;;;;14.47;4.33;;;18.60;73.90;;;;;;4844343;29;20054;-76
2021/10/30 11:36:36;;;;;;;11.37;2.97;;;18.60;73.80;;;;;;4844507;29;20050;-79
2021/10/30 11:39:04;;;;;;;11.38;3.60;;;18.60;73.80;;;;;;4852917;29;20133;-74
2021/10/30 11:41:35;;;;;;;9.77;3.60;;;18.60;73.90;;;;;;4844322;29;20065;-76
2021/10/30 11:44:04;;;;;;;7.63;3.58;;;18.60;73.80;;;;;;4851312;29;20086;-74
2021/10/30 11:46:31;;;;;;;11.65;3.90;;;18.60;73.80;;;;;;4845588;29;20092;-73
2021/10/30 11:48:59;;;;;;;18.13;4.20;;;18.60;73.80;;;;;;4843635;29;20062;-78
2021/10/30 11:51:41;;;;;;;12.50;4.38;;;18.60;73.90;;;;;;4829411;29;20142;-72
2021/10/30 11:54:11;;;;;;;11.18;4.20;;;18.60;73.90;;;;;;4826489;29;20080;-73
2021/10/30 11:56:37;;;;;;;13.00;4.22;;;18.60;73.90;;;;;;4845802;29;20369;-70
2021/10/30 11:59:05;;;;;;;13.50;3.88;;;18.60;73.80;;;;;;4838657;29;20127;-74
2021/10/30 12:01:46;;;;;;;12.30;4.55;;;18.60;73.80;;;;;;4844659;29;20133;-70
2021/10/30 12:04:28;;;;;;;9.85;3.60;;;18.60;73.70;;;;;;4839577;29;20137;-69
2021/10/30 12:06:59;;;;;;;14.50;3.85;;;18.60;73.60;;;;;;4826878;29;20054;-71
2021/10/30 12:09:34;;;;;;;12.93;3.38;;;18.60;73.70;;;;;;4826041;29;20096;-71
2021/10/30 12:12:05;;;;;;;10.73;3.88;;;18.60;73.70;;;;;;4840609;29;20054;-74
2021/10/30 12:14:34;;;;;;;18.88;3.70;;;18.60;73.80;;;;;;4852479;29;20132;-73
2021/10/30 12:17:05;;;;;;;10.98;3.17;;;18.60;74.00;;;;;;4844478;29;20065;-74
2021/10/30 12:19:33;;;;;;;7.32;3.42;;;18.60;74.10;;;;;;4828821;29;20053;-72
2021/10/30 12:22:20;;;;;;;8.70;3.28;;;18.50;74.10;;;;;;4845145;29;20054;-73
2021/10/30 12:25:04;;;;;;;15.30;3.88;;;18.60;74.50;;;;;;4841594;29;20096;-73
2021/10/30 12:27:33;;;;;;;17.02;4.47;;;18.60;74.80;;;;;;4827921;29;20046;-74
2021/10/30 12:30:07;;;;;;;19.23;4.40;;;18.60;75.00;;;;;;4844791;29;20128;-72
2021/10/30 12:32:41;;;;;;;24.33;5.00;;;18.60;75.30;;;;;;4844824;29;20046;-73
2021/10/30 12:35:07;;;;;;;;;;;18.60;75.40;;;;;;4845411;29;20130;-74
2021/10/30 12:37:37;;;;;;;26.98;4.72;;;18.50;75.80;;;;;;4843795;29;20016;-73
2021/10/30 12:40:06;;;;;;;27.35;5.18;;;18.50;75.70;;;;;;4844281;29;20064;-73
2021/10/30 12:42:32;;;;;;;29.42;5.05;;;18.50;75.90;;;;;;4844424;29;20447;-72
2021/10/30 12:44:58;;;;;;;37.83;6.25;;;18.50;76.00;;;;;;4844395;29;20091;-72
2021/10/30 12:47:27;;;;;;;34.05;4.80;;;18.50;76.00;;;;;;4842441;29;20038;-72
2021/10/30 12:50:00;;;;;;;32.10;4.38;;;18.50;76.10;;;;;;4837179;29;20058;-71
2021/10/30 12:52:41;;;;;;;;;;;18.40;76.20;;;;;;4843981;29;20541;-72
2021/10/30 12:55:25;;;;;;;31.10;4.15;;;18.50;75.80;;;;;;4828404;29;20322;-72
2021/10/30 12:57:58;;;;;;;34.42;5.30;;;18.40;76.10;;;;;;4844441;29;20057;-72
2021/10/30 13:00:38;;;;;;;28.85;4.65;;;18.40;76.10;;;;;;4839159;29;20070;-72
2021/10/30 13:03:14;;;;;;;28.38;5.25;;;18.40;76.10;;;;;;4826012;29;20105;-71
2021/10/30 13:05:44;;;;;;;22.42;4.57;;;18.40;75.70;;;;;;4813655;29;20124;-72
2021/10/30 13:08:10;;;;;;;23.98;4.78;;;18.50;75.80;;;;;;4825843;29;20061;-74
2021/10/30 13:10:37;;;;;;;25.30;5.25;;;18.40;75.90;;;;;;4824733;29;20117;-72
2021/10/30 13:13:03;;;;;;;19.58;4.40;;;18.50;75.90;;;;;;4827999;29;20157;-72
2021/10/30 13:15:29;;;;;;;17.48;4.38;;;18.40;75.80;;;;;;4843085;29;20057;-73
2021/10/30 13:17:56;;;;;;;21.65;4.93;;;18.40;75.40;;;;;;4825924;29;20062;-72
2021/10/30 13:20:22;;;;;;;28.63;4.65;;;18.50;75.60;;;;;;4826190;29;20370;-72
2021/10/30 13:22:48;;;;;;;15.50;4.47;;;18.50;75.70;;;;;;4825854;29;20050;-72
2021/10/30 13:25:14;;;;;;;29.60;4.65;;;18.40;74.90;;;;;;4825929;29;20058;-73
2021/10/30 13:27:40;;;;;;;23.95;4.50;;;18.40;75.60;;;;;;4824810;29;20046;-69
2021/10/30 13:30:08;;;;;;;19.85;4.50;;;18.40;75.50;;;;;;4825857;29;20118;-69
2021/10/30 13:32:34;;;;;;;20.13;4.35;;;18.40;75.40;;;;;;4825919;29;20058;-69
2021/10/30 13:35:00;;;;;;;16.52;4.13;;;18.40;75.30;;;;;;4826588;29;20134;-69
2021/10/30 13:37:27;;;;;;;21.48;4.70;;;18.40;75.20;;;;;;4825638;29;20057;-69
2021/10/30 13:39:53;;;;;;;17.27;4.30;;;18.40;75.10;;;;;;4825537;29;20097;-70
2021/10/30 13:42:19;;;;;;;16.23;4.45;;;18.40;75.00;;;;;;4825763;29;20142;-70
2021/10/30 13:44:45;;;;;;;13.48;3.28;;;18.40;74.80;;;;;;4826258;29;20046;-69
2021/10/30 13:47:11;;;;;;;13.23;3.75;;;18.50;74.70;;;;;;4825640;29;20068;-69
2021/10/30 13:49:37;;;;;;;16.65;3.53;;;18.40;74.60;;;;;;4825923;29;20046;-70
2021/10/30 13:52:03;;;;;;;13.30;3.60;;;18.40;74.50;;;;;;4825690;29;20131;-70
2021/10/30 13:54:29;;;;;;;14.75;3.60;;;18.50;74.40;;;;;;4826026;29;20046;-69
2021/10/30 13:56:55;;;;;;;15.20;3.25;;;18.50;74.30;;;;;;4825612;29;20057;-70
2021/10/30 13:59:21;;;;;;;10.18;3.55;;;18.50;74.20;;;;;;4826211;29;20103;-70
2021/10/30 14:01:47;;;;;;;7.72;2.97;;;18.50;74.00;;;;;;4825720;29;20105;-69
2021/10/30 14:04:13;;;;;;;15.77;4.05;;;18.50;74.00;;;;;;4825921;29;20090;-69
2021/10/30 14:06:39;;;;;;;11.68;2.80;;;18.50;73.90;;;;;;4825489;29;20058;-70
2021/10/30 14:09:06;;;;;;;6.70;2.80;;;18.50;73.80;;;;;;4825743;29;20374;-69
2021/10/30 14:11:32;;;;;;;9.75;3.15;;;18.50;73.70;;;;;;4824922;29;20058;-69
2021/10/30 14:14:02;;;;;;;14.60;3.38;;;18.50;73.60;;;;;;4824250;29;20054;-71
2021/10/30 14:16:29;;;;;;;9.20;3.03;;;18.60;73.60;;;;;;4821437;29;20061;-71
2021/10/30 14:18:54;;;;;;;7.35;3.10;;;18.60;72.50;;;;;;4812755;29;20059;-72
2021/10/30 14:21:20;;;;;;;5.25;2.92;;;18.50;71.90;;;;;;4828872;29;20125;-73
2021/10/30 14:23:48;;;;;;;4.78;2.88;;;18.40;71.90;;;;;;4810334;29;20062;-71
2021/10/30 14:26:16;;;;;;;8.60;3.13;;;18.20;72.00;;;;;;4810382;29;20098;-70
2021/10/30 14:28:43;;;;;;;7.93;3.15;;;18.20;72.40;;;;;;4824588;29;20130;-69
2021/10/30 14:31:10;;;;;;;7.20;2.72;;;18.20;72.60;;;;;;4828805;29;20470;-68
2021/10/30 14:33:36;;;;;;;6.22;2.35;;;18.20;72.80;;;;;;4828368;29;20199;-70
2021/10/30 14:36:02;;;;;;;6.55;2.70;;;18.10;72.80;;;;;;4828568;29;20137;-72
2021/10/30 14:38:29;;;;;;;8.70;2.47;;;18.20;73.30;;;;;;4828601;29;20050;-72
2021/10/30 14:40:55;;;;;;;9.38;2.50;;;18.20;73.40;;;;;;4828191;29;20061;-74
2021/10/30 14:43:22;;;;;;;9.88;2.83;;;18.20;73.60;;;;;;4827813;29;20059;-74
2021/10/30 14:45:51;;;;;;;7.28;2.75;;;18.20;73.90;;;;;;4828908;29;20162;-73
2021/10/30 14:48:18;;;;;;;11.65;2.88;;;18.20;73.90;;;;;;4828888;29;20066;-76
2021/10/30 14:50:44;;;;;;;8.20;2.35;;;18.20;74.00;;;;;;4828104;29;20065;-77
2021/10/30 14:53:11;;;;;;;6.05;2.50;;;18.20;75.00;;;;;;4817847;29;20046;-78
2021/10/30 14:55:38;;;;;;;3.65;2.30;;;18.20;74.70;;;;;;4827813;29;20529;-73
2021/10/30 14:58:04;;;;;;;7.40;2.53;;;18.20;74.60;;;;;;4827925;29;20489;-73
2021/10/30 15:00:30;;;;;;;8.63;2.30;;;18.30;74.70;;;;;;4827851;29;20149;-75
2021/10/30 15:02:57;;;;;;;7.68;2.45;;;18.20;74.90;;;;;;4815056;29;20478;-74
2021/10/30 15:05:22;;;;;;;8.75;1.90;;;18.30;75.10;;;;;;4840927;29;20364;-73
2021/10/30 15:07:48;;;;;;;7.82;2.60;;;18.20;75.30;;;;;;4846221;29;20107;-74
2021/10/30 15:10:14;;;;;;;5.20;2.15;;;18.20;75.40;;;;;;4846937;29;20054;-74
2021/10/30 15:12:40;;;;;;;5.68;1.90;;;18.20;75.50;;;;;;4837628;29;20056;-82
2021/10/30 15:15:07;;;;;;;47.80;37.38;;;18.20;75.60;;;;;;4796786;29;20462;-77
2021/10/30 15:17:34;;;;;;;30.42;16.05;;;18.20;75.70;;;;;;4828066;29;20358;-73
2021/10/30 15:19:59;;;;;;;16.08;8.32;;;18.20;75.50;;;;;;4827750;29;20054;-75
2021/10/30 15:22:25;;;;;;;10.43;4.97;;;18.20;74.70;;;;;;4827239;29;20368;-80
2021/10/30 15:24:52;;;;;;;7.70;3.50;;;18.30;73.70;;;;;;4827474;29;20069;-77
2021/10/30 15:27:18;;;;;;;4.72;3.10;;;18.20;72.70;;;;;;4827545;29;20054;-77
2021/10/30 15:29:46;;;;;;;8.18;2.83;;;18.10;72.20;;;;;;4827274;29;20482;-75
2021/10/30 15:32:12;;;;;;;6.00;2.70;;;17.90;72.80;;;;;;4826321;29;20043;-75
2021/10/30 15:34:47;;;;;;;8.50;2.90;;;17.70;74.00;;;;;;4828241;29;20055;-76
2021/10/30 15:37:13;;;;;;;4.40;2.50;;;17.50;75.00;;;;;;4819753;29;20551;-77
2021/10/30 15:39:39;;;;;;;4.30;2.47;;;17.40;75.60;;;;;;4827677;29;20054;-73
2021/10/30 15:42:05;;;;;;;4.35;1.90;;;17.20;76.20;;;;;;4827218;29;20054;-73
2021/10/30 15:44:34;;;;;;;5.65;2.47;;;17.10;76.60;;;;;;4827499;29;20050;-71
2021/10/30 15:47:00;;;;;;;8.38;2.78;;;17.10;77.10;;;;;;4845672;29;20056;-72
2021/10/30 15:49:27;;;;;;;3.45;1.83;;;17.00;77.30;;;;;;4845877;29;20399;-72
2021/10/30 15:51:54;;;;;;;2.97;1.95;;;17.10;78.30;;;;;;4844518;29;20149;-72
2021/10/30 15:54:21;;;;;;;6.43;2.45;;;17.30;77.80;;;;;;4827265;29;20047;-72
2021/10/30 15:56:46;;;;;;;3.97;2.17;;;17.40;77.80;;;;;;4827335;29;20046;-72
2021/10/30 15:59:13;;;;;;;5.35;2.05;;;17.40;77.60;;;;;;4827421;29;20046;-72
2021/10/30 16:01:39;;;;;;;4.78;2.00;;;17.50;77.60;;;;;;4826537;29;20066;-72
2021/10/30 16:04:04;;;;;;;3.40;2.20;;;17.60;77.50;;;;;;4827367;29;20054;-72
2021/10/30 16:06:30;;;;;;;3.75;1.77;;;17.60;77.40;;;;;;4826604;29;20324;-72
2021/10/30 16:08:57;;;;;;;6.15;1.85;;;17.60;77.00;;;;;;4826620;29;20065;-72
2021/10/30 16:11:28;;;;;;;6.53;2.40;;;17.70;77.20;;;;;;4826894;29;20058;-72
2021/10/30 16:13:54;;;;;;;3.85;2.10;;;17.70;77.10;;;;;;4808203;29;20073;-72
2021/10/30 16:16:21;;;;;;;4.53;2.10;;;17.70;76.90;;;;;;4808685;29;20050;-72
2021/10/30 16:18:50;;;;;;;4.30;2.50;;;17.70;76.70;;;;;;4808600;29;20058;-73
2021/10/30 16:21:18;;;;;;;7.45;2.05;;;17.80;76.70;;;;;;4808668;29;20370;-74
2021/10/30 16:23:44;;;;;;;5.40;1.85;;;17.80;76.80;;;;;;4825389;29;20054;-73
2021/10/30 16:26:11;;;;;;;13.27;2.97;;;17.80;76.90;;;;;;4826701;29;20058;-75
2021/10/30 16:28:42;;;;;;;10.75;1.85;;;17.80;76.30;;;;;;4826770;29;20057;-75
2021/10/30 16:31:15;;;;;;;10.73;2.08;;;17.80;76.60;;;;;;4826706;29;20054;-74
2021/10/30 16:33:41;;;;;;;12.27;2.00;;;17.80;76.70;;;;;;4810592;29;20482;-75
2021/10/30 16:36:06;;;;;;;12.57;3.00;;;17.80;76.60;;;;;;4808573;29;20092;-75
2021/10/30 16:38:33;;;;;;;17.40;2.80;;;17.80;76.10;;;;;;4808309;29;20051;-74
2021/10/30 16:41:01;;;;;;;17.15;2.72;;;17.70;76.60;;;;;;4807588;29;20090;-82
2021/10/30 16:43:27;;;;;;;13.13;2.30;;;17.70;77.40;;;;;;4820826;29;20062;-77
2021/10/30 16:45:53;;;;;;;10.27;2.38;;;17.80;77.70;;;;;;4826889;29;20107;-75
2021/10/30 16:48:19;;;;;;;12.65;2.78;;;17.80;78.20;;;;;;4826476;29;20058;-77
2021/10/30 16:50:45;;;;;;;18.52;3.88;;;17.80;78.30;;;;;;4826834;29;20065;-76
2021/10/30 16:53:10;;;;;;;16.25;3.42;;;17.80;78.00;;;;;;4815539;29;20369;-75
2021/10/30 16:55:37;;;;;;;16.95;2.63;;;17.80;77.60;;;;;;4808260;29;20115;-77
2021/10/30 16:58:04;;;;;;;14.95;3.10;;;17.80;77.80;;;;;;4807710;29;20066;-75
2021/10/30 17:00:30;;;;;;;14.32;3.00;;;17.80;78.00;;;;;;4797518;29;20077;-76
2021/10/30 17:02:55;;;;;;;23.20;2.72;;;17.80;78.10;;;;;;4834750;29;20049;-76
2021/10/30 17:05:21;;;;;;;11.00;2.67;;;17.90;78.30;;;;;;4844237;29;20066;-76
2021/10/30 17:07:48;;;;;;;13.05;3.10;;;17.90;78.40;;;;;;4844445;29;20054;-77
2021/10/30 17:10:14;;;;;;;10.07;1.88;;;17.90;78.40;;;;;;4844663;29;20058;-76
2021/10/30 17:12:40;;;;;;;13.80;3.35;;;17.90;78.50;;;;;;4838708;29;20042;-75
2021/10/30 17:15:07;;;;;;;12.43;2.70;;;17.90;78.60;;;;;;4823630;29;20350;-76
2021/10/30 17:17:32;;;;;;;15.20;2.90;;;17.90;78.60;;;;;;4828326;29;20058;-76
2021/10/30 17:19:58;;;;;;;15.55;2.83;;;17.90;78.60;;;;;;4844180;29;20123;-75
2021/10/30 17:22:24;;;;;;;16.23;3.08;;;17.90;78.50;;;;;;4843979;29;20042;-75
2021/10/30 17:24:49;;;;;;;14.75;2.25;;;18.00;78.40;;;;;;4844059;29;20050;-75
2021/10/30 17:27:16;;;;;;;8.65;2.38;;;18.00;78.30;;;;;;4844249;29;20049;-79
2021/10/30 17:29:45;;;;;;;11.13;2.10;;;17.90;77.50;;;;;;4843823;29;20361;-76
2021/10/30 17:32:11;;;;;;;10.23;1.70;;;17.80;76.30;;;;;;4843830;29;20061;-77
2021/10/30 17:34:38;;;;;;;16.52;1.95;;;17.70;77.40;;;;;;4844593;29;20129;-76
2021/10/30 17:37:06;;;;;;;13.88;2.17;;;17.80;77.90;;;;;;4844111;29;20053;-76
2021/10/30 17:39:32;;;;;;;9.93;2.42;;;17.80;78.00;;;;;;4844080;29;20050;-75
2021/10/30 17:41:59;;;;;;;15.00;2.20;;;17.80;78.00;;;;;;4845993;29;20054;-77
2021/10/30 17:44:25;;;;;;;10.55;2.55;;;17.80;78.00;;;;;;4861776;29;20061;-76
2021/10/30 17:46:51;;;;;;;8.43;2.28;;;17.80;77.90;;;;;;4853610;29;20046;-77
2021/10/30 17:49:17;;;;;;;10.70;2.45;;;17.90;78.00;;;;;;4843974;29;20054;-77
2021/10/30 17:51:42;;;;;;;10.43;2.25;;;17.90;77.90;;;;;;4845025;29;20054;-76
2021/10/30 17:54:10;;;;;;;4.63;1.58;;;17.90;77.90;;;;;;4847387;29;20377;-76
2021/10/30 17:56:36;;;;;;;9.82;2.42;;;17.90;77.90;;;;;;4847313;29;20250;-76
2021/10/30 17:59:02;;;;;;;12.98;1.88;;;17.90;77.90;;;;;;4856121;29;20046;-76
2021/10/30 18:01:28;;;;;;;7.20;1.95;;;17.90;77.80;;;;;;4853047;29;20418;-76
2021/10/30 18:03:54;;;;;;;14.55;2.30;;;17.90;77.80;;;;;;4847470;29;20373;-77
2021/10/30 18:06:20;;;;;;;5.05;1.67;;;17.90;77.80;;;;;;4847113;29;20046;-76
2021/10/30 18:08:46;;;;;;;7.95;2.15;;;17.90;77.80;;;;;;4847252;29;20062;-75
2021/10/30 18:11:12;;;;;;;8.68;1.95;;;17.80;77.50;;;;;;4832434;29;20054;-76
2021/10/30 18:13:38;;;;;;;8.25;1.85;;;17.80;77.60;;;;;;4828967;29;20050;-76
2021/10/30 18:16:04;;;;;;;10.48;1.95;;;17.80;77.60;;;;;;4829128;29;20086;-76
2021/10/30 18:18:31;;;;;;;8.32;1.95;;;17.80;77.70;;;;;;4828195;29;20046;-75
2021/10/30 18:20:58;;;;;;;10.73;2.00;;;17.70;77.60;;;;;;4828396;29;20157;-75
2021/10/30 18:23:24;;;;;;;6.30;1.67;;;17.70;77.70;;;;;;4828934;29;20066;-76
2021/10/30 18:25:50;;;;;;;6.32;1.55;;;17.70;77.80;;;;;;4828715;29;20053;-76
2021/10/30 18:28:16;;;;;;;4.40;2.10;;;17.70;77.80;;;;;;4829208;29;20085;-76
2021/10/30 18:30:44;;;;;;;6.82;1.75;;;17.70;77.80;;;;;;4828431;29;20077;-76
2021/10/30 18:33:11;;;;;;;5.25;1.63;;;17.70;77.90;;;;;;4828703;29;20362;-76
2021/10/30 18:35:37;;;;;;;5.47;1.50;;;17.70;77.80;;;;;;4828753;29;20054;-76
2021/10/30 18:38:04;;;;;;;6.55;1.48;;;17.70;77.80;;;;;;4828129;29;20065;-76
2021/10/30 18:40:30;;;;;;;5.63;1.75;;;17.70;77.80;;;;;;4828135;29;20073;-74
2021/10/30 18:42:58;;;;;;;6.82;1.40;;;17.80;77.80;;;;;;4827474;29;20362;-75
2021/10/30 18:45:24;;;;;;;6.82;1.70;;;17.70;77.60;;;;;;4828206;29;20074;-76
2021/10/30 18:47:52;;;;;;;5.55;1.30;;;17.70;77.70;;;;;;4826460;29;20042;-77
2021/10/30 18:50:18;;;;;;;8.93;1.48;;;17.60;77.70;;;;;;4819450;29;20058;-78
2021/10/30 18:52:45;;;;;;;3.03;1.35;;;17.60;77.70;;;;;;4846529;29;20070;-76
2021/10/30 18:55:12;;;;;;;6.75;1.45;;;17.70;77.80;;;;;;4833045;29;20131;-77
2021/10/30 18:57:38;;;;;;;4.88;1.30;;;17.60;77.80;;;;;;4828254;29;20051;-77
2021/10/30 19:00:06;;;;;;;3.55;1.60;;;17.60;77.70;;;;;;4829857;29;20054;-78
2021/10/30 19:02:32;;;;;;;6.60;1.52;;;17.70;77.80;;;;;;4846006;29;20434;-76
2021/10/30 19:04:58;;;;;;;4.75;1.45;;;17.60;77.70;;;;;;4846342;29;20085;-76
2021/10/30 19:07:23;;;;;;;4.00;1.30;;;17.60;77.80;;;;;;4859715;29;20045;-78
2021/10/30 19:09:49;;;;;;;6.05;1.08;;;17.70;77.80;;;;;;4864859;29;20110;-77
2021/10/30 19:12:16;;;;;;;2.90;1.30;;;17.60;77.80;;;;;;4864865;29;20057;-77
2021/10/30 19:14:42;;;;;;;4.28;1.38;;;17.60;77.80;;;;;;4864558;29;20089;-77
2021/10/30 19:17:08;;;;;;;2.85;0.85;;;17.60;77.80;;;;;;4864626;29;20383;-77
2021/10/30 19:19:34;;;;;;;3.90;1.08;;;17.60;77.80;;;;;;4864548;29;20056;-77
2021/10/30 19:22:00;;;;;;;3.80;1.55;;;17.60;77.90;;;;;;4864779;29;20049;-77
2021/10/30 19:24:25;;;;;;;2.05;0.98;;;17.60;77.90;;;;;;4864743;29;20061;-77
2021/10/30 19:26:51;;;;;;;3.97;1.00;;;17.60;77.90;;;;;;4864675;29;20089;-77
2021/10/30 19:29:17;;;;;;;5.43;1.20;;;17.60;78.00;;;;;;4864344;29;20057;-77
2021/10/30 19:31:43;;;;;;;2.25;0.95;;;17.60;78.00;;;;;;4864238;29;20136;-77
2021/10/30 19:34:10;;;;;;;4.35;1.40;;;17.60;78.00;;;;;;4864289;29;20045;-76
2021/10/30 19:36:36;;;;;;;4.88;1.42;;;17.60;77.90;;;;;;4864267;29;20050;-76
2021/10/30 19:39:05;;;;;;;2.17;1.10;;;17.60;77.90;;;;;;4864667;29;20053;-76
2021/10/30 19:41:31;;;;;;;6.47;1.55;;;17.60;77.90;;;;;;4864608;29;20049;-76
2021/10/30 19:43:57;;;;;;;1.88;1.15;;;17.60;77.80;;;;;;4850229;29;20046;-77
2021/10/30 19:46:23;;;;;;;3.15;1.20;;;17.60;77.70;;;;;;4845947;29;20069;-76
2021/10/30 19:48:48;;;;;;;5.50;1.85;;;17.50;77.60;;;;;;4845185;29;20046;-77
2021/10/30 19:51:14;;;;;;;3.40;0.95;;;17.50;77.60;;;;;;4856071;29;20102;-76
2021/10/30 19:53:41;;;;;;;3.95;1.63;;;17.50;77.70;;;;;;4863525;29;20045;-76
2021/10/30 19:56:10;;;;;;;2.60;0.90;;;17.40;77.90;;;;;;4846753;29;20090;-76
2021/10/30 19:58:37;;;;;;;2.97;0.98;;;17.40;78.10;;;;;;4845525;29;20134;-76